createdAt,value
2022-11-25T00:00:14.272Z,99564.56
2022-11-25T00:00:45.928Z,99570.59
2022-11-25T00:01:18.351Z,99570.72
2022-11-25T00:01:49.897Z,99565.41
2022-11-25T00:02:21.626Z,99570.72
2022-11-25T00:02:53.402Z,99571.59
2022-11-25T00:03:25.009Z,99563.75
2022-11-25T00:03:56.882Z,99567.38
2022-11-25T00:04:28.424Z,99562.06
2022-11-25T00:04:59.926Z,99566.56
2022-11-25T00:05:31.458Z,99559.41
2022-11-25T00:06:14.613Z,99562.06
2022-11-25T00:06:46.163Z,99559.25
2022-11-25T00:07:17.755Z,99565.41
2022-11-25T00:07:49.399Z,99559.25
2022-11-25T00:08:20.965Z,99565.41
2022-11-25T00:09:01.651Z,99556.44
2022-11-25T00:09:33.126Z,99560.06
2022-11-25T00:10:05.536Z,99565.41
2022-11-25T00:10:37.069Z,99550.00
2022-11-25T00:11:08.475Z,99561.78
2022-11-25T00:11:40.761Z,99565.41
2022-11-25T00:12:12.172Z,99558.28
2022-11-25T00:12:43.716Z,99557.69
2022-11-25T00:13:15.212Z,99564.72
2022-11-25T00:13:46.841Z,99565.53
2022-11-25T00:14:18.295Z,99557.28
2022-11-25T00:14:49.791Z,99554.06
2022-11-25T00:15:21.294Z,99546.06
2022-11-25T00:15:52.744Z,99547.78
2022-11-25T00:16:24.472Z,99558.41
2022-11-25T00:16:56.127Z,99549.44
2022-11-25T00:17:27.715Z,99543.28
2022-11-25T00:17:59.243Z,99555.03
2022-11-25T00:18:30.900Z,99551.13
2022-11-25T00:19:02.530Z,99550.28
2022-11-25T00:19:34.082Z,99546.91
2022-11-25T00:20:05.880Z,99547.63
2022-11-25T00:20:37.548Z,99545.78
2022-11-25T00:21:09.643Z,99545.50
2022-11-25T00:21:41.126Z,99550.81
2022-11-25T00:22:12.695Z,99553.50
2022-11-25T00:22:44.278Z,99557.28
2022-11-25T00:23:15.713Z,99547.34
2022-11-25T00:23:53.736Z,99554.59
2022-11-25T00:24:25.234Z,99545.78
2022-11-25T00:24:56.738Z,99544.97
2022-11-25T00:25:28.282Z,99545.78
2022-11-25T00:26:05.799Z,99551.94
2022-11-25T00:26:37.214Z,99550.13
2022-11-25T00:27:08.812Z,99552.81
2022-11-25T00:27:40.441Z,99544.09
2022-11-25T00:28:11.933Z,99552.09
2022-11-25T00:28:44.070Z,99553.09
2022-11-25T00:29:15.563Z,99557.56
2022-11-25T00:29:47.047Z,99544.25
2022-11-25T00:30:18.583Z,99544.97
2022-11-25T00:30:50.051Z,99543.97
2022-11-25T00:31:24.257Z,99561.78
2022-11-25T00:31:55.866Z,99551.13
2022-11-25T00:32:27.402Z,99554.75
2022-11-25T00:32:58.815Z,99552.09
2022-11-25T00:33:30.303Z,99548.75
2022-11-25T00:34:02.108Z,99548.75
2022-11-25T00:34:33.949Z,99547.78
2022-11-25T00:35:05.718Z,99548.59
2022-11-25T00:35:37.292Z,99546.06
2022-11-25T00:36:22.285Z,99553.25
2022-11-25T00:36:53.839Z,99544.09
2022-11-25T00:37:25.375Z,99546.75
2022-11-25T00:37:56.865Z,99544.09
2022-11-25T00:38:28.365Z,99543.28
2022-11-25T00:39:03.750Z,99542.31
2022-11-25T00:39:35.169Z,99544.09
2022-11-25T00:40:07.007Z,99545.09
2022-11-25T00:40:38.487Z,99551.41
2022-11-25T00:41:10.151Z,99540.75
2022-11-25T00:41:41.612Z,99544.09
2022-11-25T00:42:13.073Z,99544.09
2022-11-25T00:42:44.652Z,99549.44
2022-11-25T00:43:16.017Z,99544.09
2022-11-25T00:43:47.479Z,99547.78
2022-11-25T00:44:19.336Z,99542.59
2022-11-25T00:44:50.878Z,99541.72
2022-11-25T00:45:22.353Z,99543.28
2022-11-25T00:45:53.847Z,99542.44
2022-11-25T00:46:25.325Z,99538.78
2022-11-25T00:46:56.900Z,99546.06
2022-11-25T00:47:28.370Z,99546.06
2022-11-25T00:47:59.838Z,99547.78
2022-11-25T00:48:31.300Z,99543.28
2022-11-25T00:49:02.845Z,99547.06
2022-11-25T00:49:34.338Z,99554.91
2022-11-25T00:50:06.036Z,99544.38
2022-11-25T00:50:37.479Z,99539.38
2022-11-25T00:51:08.937Z,99539.06
2022-11-25T00:51:40.483Z,99541.91
2022-11-25T00:52:21.585Z,99543.56
2022-11-25T00:52:53.051Z,99537.25
2022-11-25T00:53:24.576Z,99539.94
2022-11-25T00:53:58.966Z,99538.91
2022-11-25T00:54:30.821Z,99540.06
2022-11-25T00:55:02.231Z,99537.94
2022-11-25T00:55:33.904Z,99537.13
2022-11-25T00:56:05.745Z,99542.44
2022-11-25T00:56:37.204Z,99540.59
2022-11-25T00:57:08.680Z,99542.44
2022-11-25T00:57:40.171Z,99545.09
2022-11-25T00:58:11.772Z,99541.72
2022-11-25T00:58:43.417Z,99541.72
2022-11-25T00:59:14.934Z,99541.72
2022-11-25T00:59:46.525Z,99554.06
2022-11-25T01:00:18.231Z,99549.72
2022-11-25T01:00:49.733Z,99553.25
2022-11-25T01:01:21.368Z,99539.06
2022-11-25T01:01:53.098Z,99548.75
2022-11-25T01:02:24.638Z,99547.78
2022-11-25T01:02:56.203Z,99545.09
2022-11-25T01:03:27.706Z,99552.09
2022-11-25T01:03:59.221Z,99545.94
2022-11-25T01:04:30.764Z,99550.56
2022-11-25T01:05:02.171Z,99544.38
2022-11-25T01:05:33.838Z,99541.44
2022-11-25T01:06:05.815Z,99538.91
2022-11-25T01:06:37.314Z,99549.56
2022-11-25T01:07:08.861Z,99543.28
2022-11-25T01:07:40.460Z,99540.75
2022-11-25T01:08:11.979Z,99549.44
2022-11-25T01:08:43.461Z,99541.44
2022-11-25T01:09:15.145Z,99544.97
2022-11-25T01:09:47.297Z,99541.28
2022-11-25T01:10:18.744Z,99542.44
2022-11-25T01:10:55.069Z,99550.28
2022-11-25T01:11:26.560Z,99546.06
2022-11-25T01:11:58.045Z,99544.38
2022-11-25T01:12:29.611Z,99531.94
2022-11-25T01:13:01.191Z,99529.28
2022-11-25T01:13:32.770Z,99537.13
2022-11-25T01:14:04.263Z,99537.94
2022-11-25T01:14:36.196Z,99532.75
2022-11-25T01:15:08.409Z,99534.31
2022-11-25T01:15:39.910Z,99530.09
2022-11-25T01:16:12.139Z,99527.28
2022-11-25T01:16:43.809Z,99527.97
2022-11-25T01:17:15.343Z,99533.16
2022-11-25T01:17:46.868Z,99539.63
2022-11-25T01:18:18.374Z,99513.16
2022-11-25T01:18:49.819Z,99533.44
2022-11-25T01:19:21.334Z,99527.16
2022-11-25T01:19:52.816Z,99521.97
2022-11-25T01:20:24.334Z,99528.13
2022-11-25T01:20:55.864Z,99529.13
2022-11-25T01:21:28.385Z,99524.78
2022-11-25T01:21:59.905Z,99530.78
2022-11-25T01:22:31.363Z,99534.44
2022-11-25T01:23:02.905Z,99535.44
2022-11-25T01:23:34.446Z,99537.13
2022-11-25T01:24:06.065Z,99535.28
2022-11-25T01:24:37.783Z,99528.97
2022-11-25T01:25:09.617Z,99528.13
2022-11-25T01:25:41.106Z,99555.31
2022-11-25T01:26:13.345Z,99536.13
2022-11-25T01:26:44.839Z,99531.78
2022-11-25T01:27:16.404Z,99547.47
2022-11-25T01:27:47.979Z,99537.13
2022-11-25T01:28:19.426Z,99543.41
2022-11-25T01:28:54.986Z,99542.44
2022-11-25T01:29:26.476Z,99535.44
2022-11-25T01:29:57.928Z,99545.09
2022-11-25T01:30:29.499Z,99551.25
2022-11-25T01:31:01.681Z,99536.25
2022-11-25T01:31:34.043Z,99538.91
2022-11-25T01:32:05.544Z,99544.38
2022-11-25T01:32:37.153Z,99539.78
2022-11-25T01:33:08.585Z,99544.97
2022-11-25T01:33:40.138Z,99559.09
2022-11-25T01:34:14.426Z,99543.41
2022-11-25T01:34:45.966Z,99554.22
2022-11-25T01:35:17.477Z,99553.38
2022-11-25T01:35:48.952Z,99545.41
2022-11-25T01:36:20.408Z,99544.09
2022-11-25T01:36:51.883Z,99544.09
2022-11-25T01:37:23.344Z,99545.94
2022-11-25T01:37:54.903Z,99546.06
2022-11-25T01:38:26.359Z,99542.72
2022-11-25T01:38:58.546Z,99541.72
2022-11-25T01:39:32.910Z,99548.06
2022-11-25T01:40:05.131Z,99540.75
2022-11-25T01:40:36.663Z,99546.06
2022-11-25T01:41:09.637Z,99539.94
2022-11-25T01:41:41.186Z,99544.38
2022-11-25T01:42:12.714Z,99545.94
2022-11-25T01:42:44.582Z,99539.94
2022-11-25T01:43:16.057Z,99547.06
2022-11-25T01:44:06.065Z,99549.72
2022-11-25T01:44:38.551Z,99546.06
2022-11-25T01:45:33.053Z,99551.25
2022-11-25T01:46:07.375Z,99531.66
2022-11-25T01:46:43.201Z,99542.59
2022-11-25T01:47:14.696Z,99544.38
2022-11-25T01:47:46.168Z,99543.28
2022-11-25T01:48:29.294Z,99539.06
2022-11-25T01:49:01.660Z,99530.25
2022-11-25T01:50:05.358Z,99537.41
2022-11-25T01:50:36.820Z,99539.06
2022-11-25T01:51:40.970Z,99539.06
2022-11-25T01:52:14.404Z,99532.91
2022-11-25T01:52:46.222Z,99534.59
2022-11-25T01:53:18.197Z,99532.91
2022-11-25T01:53:49.774Z,99531.25
2022-11-25T01:54:22.210Z,99539.94
2022-11-25T01:54:56.577Z,99533.75
2022-11-25T01:55:28.498Z,99531.25
2022-11-25T01:56:00.519Z,99543.41
2022-11-25T01:56:33.305Z,99539.78
2022-11-25T01:57:07.598Z,99533.44
2022-11-25T01:57:43.986Z,99535.13
2022-11-25T01:58:16.261Z,99529.81
2022-11-25T01:58:47.940Z,99531.78
2022-11-25T01:59:19.425Z,99535.44
2022-11-25T01:59:51.101Z,99533.75
2022-11-25T02:00:22.585Z,99531.06
2022-11-25T02:00:54.130Z,99538.09
2022-11-25T02:01:25.681Z,99540.75
2022-11-25T02:01:57.293Z,99533.75
2022-11-25T02:02:28.895Z,99539.06
2022-11-25T02:03:00.502Z,99539.06
2022-11-25T02:03:37.286Z,99533.59
2022-11-25T02:04:08.716Z,99532.09
2022-11-25T02:04:40.149Z,99534.75
2022-11-25T02:05:12.740Z,99533.59
2022-11-25T02:05:46.854Z,99531.78
2022-11-25T02:06:25.339Z,99532.63
2022-11-25T02:06:57.935Z,99531.94
2022-11-25T02:07:36.188Z,99535.44
2022-11-25T02:08:07.739Z,99534.44
2022-11-25T02:08:39.264Z,99540.75
2022-11-25T02:09:10.765Z,99534.59
2022-11-25T02:09:42.271Z,99537.13
2022-11-25T02:10:18.253Z,99531.78
2022-11-25T02:10:49.809Z,99537.13
2022-11-25T02:11:21.306Z,99536.41
2022-11-25T02:11:52.818Z,99536.41
2022-11-25T02:12:24.352Z,99534.59
2022-11-25T02:12:55.870Z,99534.75
2022-11-25T02:13:27.296Z,99530.78
2022-11-25T02:13:58.698Z,99537.94
2022-11-25T02:14:30.304Z,99532.63
2022-11-25T02:15:01.839Z,99537.13
2022-11-25T02:15:33.626Z,99539.94
2022-11-25T02:16:05.262Z,99536.41
2022-11-25T02:16:36.763Z,99532.09
2022-11-25T02:17:08.254Z,99535.56
2022-11-25T02:17:39.806Z,99533.75
2022-11-25T02:18:11.345Z,99526.59
2022-11-25T02:18:42.856Z,99535.44
2022-11-25T02:19:23.544Z,99533.75
2022-11-25T02:20:05.202Z,99521.28
2022-11-25T02:20:36.663Z,99535.44
2022-11-25T02:21:08.198Z,99532.91
2022-11-25T02:21:41.286Z,99529.28
2022-11-25T02:22:15.599Z,99527.59
2022-11-25T02:22:49.858Z,99535.44
2022-11-25T02:23:30.364Z,99530.09
2022-11-25T02:24:10.164Z,99528.28
2022-11-25T02:24:43.664Z,99524.78
2022-11-25T02:25:19.951Z,99535.44
2022-11-25T02:25:51.435Z,99513.97
2022-11-25T02:26:22.906Z,99526.47
2022-11-25T02:26:54.340Z,99523.81
2022-11-25T02:27:25.836Z,99524.63
2022-11-25T02:28:01.788Z,99523.81
2022-11-25T02:28:33.379Z,99523.94
2022-11-25T02:29:04.929Z,99530.78
2022-11-25T02:29:36.444Z,99533.59
2022-11-25T02:30:08.298Z,99522.25
2022-11-25T02:30:39.909Z,99528.41
2022-11-25T02:31:11.356Z,99529.97
2022-11-25T02:31:43.776Z,99533.44
2022-11-25T02:32:15.310Z,99527.28
2022-11-25T02:32:47.217Z,99522.94
2022-11-25T02:33:18.805Z,99533.75
2022-11-25T02:33:50.312Z,99527.59
2022-11-25T02:34:21.881Z,99526.75
2022-11-25T02:34:53.374Z,99528.41
2022-11-25T02:35:28.918Z,99519.75
2022-11-25T02:36:01.921Z,99523.94
2022-11-25T02:36:33.459Z,99524.09
2022-11-25T02:37:04.909Z,99514.41
2022-11-25T02:37:36.423Z,99511.47
2022-11-25T02:38:09.118Z,99518.63
2022-11-25T02:38:44.071Z,99522.13
2022-11-25T02:39:15.700Z,99519.44
2022-11-25T02:39:47.185Z,99512.44
2022-11-25T02:40:18.668Z,99533.75
2022-11-25T02:40:54.055Z,99519.44
2022-11-25T02:41:25.576Z,99512.16
2022-11-25T02:41:57.240Z,99507.81
2022-11-25T02:42:28.669Z,99510.50
2022-11-25T02:43:00.236Z,99513.97
2022-11-25T02:43:31.853Z,99514.13
2022-11-25T02:44:03.629Z,99503.63
2022-11-25T02:44:35.320Z,99505.16
2022-11-25T02:45:08.254Z,99509.78
2022-11-25T02:45:42.126Z,99506.97
2022-11-25T02:46:20.293Z,99520.28
2022-11-25T02:46:53.479Z,99515.28
2022-11-25T02:47:24.941Z,99521.44
2022-11-25T02:47:56.407Z,99518.78
2022-11-25T02:48:52.795Z,99510.78
2022-11-25T02:49:20.096Z,99508.13
2022-11-25T02:49:51.598Z,99514.41
2022-11-25T02:50:23.131Z,99510.63
2022-11-25T02:50:54.722Z,99507.13
2022-11-25T02:51:27.150Z,99517.63
2022-11-25T02:51:58.639Z,99517.75
2022-11-25T02:52:30.106Z,99516.09
2022-11-25T02:53:01.654Z,99516.09
2022-11-25T02:53:33.245Z,99509.63
2022-11-25T02:54:04.695Z,99514.13
2022-11-25T02:54:36.330Z,99508.81
2022-11-25T02:55:08.078Z,99500.81
2022-11-25T02:55:39.549Z,99502.34
2022-11-25T02:56:11.310Z,99503.19
2022-11-25T02:56:42.871Z,99500.53
2022-11-25T02:57:14.389Z,99498.69
2022-11-25T02:57:45.828Z,99504.00
2022-11-25T02:58:17.305Z,99503.19
2022-11-25T02:58:48.809Z,99504.16
2022-11-25T02:59:20.313Z,99507.69
2022-11-25T02:59:51.939Z,99513.84
2022-11-25T03:00:23.469Z,99502.22
2022-11-25T03:00:55.059Z,99496.16
2022-11-25T03:01:26.693Z,99497.03
2022-11-25T03:01:58.335Z,99506.13
2022-11-25T03:02:29.975Z,99499.84
2022-11-25T03:03:01.585Z,99493.66
2022-11-25T03:03:33.009Z,99498.97
2022-11-25T03:04:04.591Z,99501.50
2022-11-25T03:04:36.312Z,99491.84
2022-11-25T03:05:08.071Z,99495.34
2022-11-25T03:05:39.642Z,99501.50
2022-11-25T03:06:11.199Z,99497.03
2022-11-25T03:06:42.581Z,99497.19
2022-11-25T03:07:14.116Z,99495.34
2022-11-25T03:07:45.695Z,99492.81
2022-11-25T03:08:17.325Z,99481.34
2022-11-25T03:08:48.894Z,99497.31
2022-11-25T03:09:20.452Z,99497.31
2022-11-25T03:09:51.964Z,99495.63
2022-11-25T03:10:23.575Z,99492.00
2022-11-25T03:10:55.121Z,99488.31
2022-11-25T03:11:26.625Z,99488.47
2022-11-25T03:11:58.121Z,99494.50
2022-11-25T03:12:29.686Z,99491.13
2022-11-25T03:13:01.138Z,99487.66
2022-11-25T03:13:32.571Z,99492.00
2022-11-25T03:14:04.045Z,99489.19
2022-11-25T03:14:35.817Z,99496.31
2022-11-25T03:15:07.799Z,99490.16
2022-11-25T03:15:39.377Z,99487.50
2022-11-25T03:16:10.964Z,99484.16
2022-11-25T03:16:42.521Z,99484.16
2022-11-25T03:17:14.406Z,99484.97
2022-11-25T03:17:45.870Z,99496.16
2022-11-25T03:18:17.372Z,99484.00
2022-11-25T03:18:48.881Z,99481.34
2022-11-25T03:19:20.328Z,99489.47
2022-11-25T03:19:51.848Z,99489.47
2022-11-25T03:20:23.395Z,99480.47
2022-11-25T03:20:54.847Z,99487.50
2022-11-25T03:21:26.391Z,99496.47
2022-11-25T03:21:57.950Z,99492.81
2022-11-25T03:22:29.446Z,99494.50
2022-11-25T03:23:01.085Z,99485.81
2022-11-25T03:23:32.573Z,99490.31
2022-11-25T03:24:04.115Z,99492.97
2022-11-25T03:24:35.939Z,99491.13
2022-11-25T03:25:07.687Z,99488.31
2022-11-25T03:25:39.184Z,99492.81
2022-11-25T03:26:10.717Z,99482.16
2022-11-25T03:26:42.280Z,99485.53
2022-11-25T03:27:13.806Z,99488.31
2022-11-25T03:27:45.289Z,99492.81
2022-11-25T03:28:16.721Z,99498.97
2022-11-25T03:28:48.150Z,99492.00
2022-11-25T03:29:19.694Z,99493.66
2022-11-25T03:29:51.207Z,99486.66
2022-11-25T03:30:23.783Z,99497.47
2022-11-25T03:30:55.318Z,99491.13
2022-11-25T03:31:26.905Z,99496.31
2022-11-25T03:31:58.453Z,99496.31
2022-11-25T03:32:29.951Z,99489.19
2022-11-25T03:33:01.527Z,99491.00
2022-11-25T03:33:33.009Z,99498.16
2022-11-25T03:34:04.484Z,99498.16
2022-11-25T03:34:36.073Z,99508.81
2022-11-25T03:35:07.868Z,99499.97
2022-11-25T03:35:39.331Z,99496.47
2022-11-25T03:36:10.797Z,99503.47
2022-11-25T03:36:42.298Z,99498.16
2022-11-25T03:37:13.869Z,99498.97
2022-11-25T03:37:45.455Z,99497.84
2022-11-25T03:38:16.880Z,99498.69
2022-11-25T03:38:48.347Z,99500.22
2022-11-25T03:39:19.804Z,99497.56
2022-11-25T03:39:51.422Z,99497.84
2022-11-25T03:40:22.905Z,99492.53
2022-11-25T03:40:54.395Z,99497.03
2022-11-25T03:41:25.954Z,99502.06
2022-11-25T03:41:57.382Z,99503.72
2022-11-25T03:42:28.932Z,99497.56
2022-11-25T03:43:00.366Z,99502.88
2022-11-25T03:43:31.761Z,99494.22
2022-11-25T03:44:03.230Z,99506.38
2022-11-25T03:44:35.053Z,99495.06
2022-11-25T03:45:07.143Z,99491.56
2022-11-25T03:47:54.341Z,99497.03
2022-11-25T03:48:25.907Z,99497.84
2022-11-25T03:48:57.481Z,99496.03
2022-11-25T03:49:29.192Z,99496.16
2022-11-25T03:50:00.742Z,99498.69
2022-11-25T03:50:32.197Z,99501.19
2022-11-25T03:51:03.709Z,99497.84
2022-11-25T03:51:35.197Z,99499.69
2022-11-25T03:52:07.104Z,99494.91
2022-11-25T03:52:38.646Z,99500.53
2022-11-25T03:53:10.229Z,99505.69
2022-11-25T03:53:41.759Z,99501.50
2022-11-25T03:54:13.394Z,99505.16
2022-11-25T03:54:44.934Z,99505.16
2022-11-25T03:55:16.670Z,99498.16
2022-11-25T03:55:48.384Z,99500.66
2022-11-25T03:56:20.017Z,99499.69
2022-11-25T03:56:51.566Z,99498.84
2022-11-25T03:57:23.133Z,99504.00
2022-11-25T03:57:54.620Z,99499.53
2022-11-25T03:58:26.241Z,99497.84
2022-11-25T03:58:57.974Z,99499.53
2022-11-25T03:59:29.559Z,99496.16
2022-11-25T04:00:01.310Z,99498.69
2022-11-25T04:00:32.761Z,99497.84
2022-11-25T04:01:04.712Z,99495.34
2022-11-25T04:01:40.053Z,99493.34
2022-11-25T04:02:14.653Z,99494.50
2022-11-25T04:02:46.443Z,99491.56
2022-11-25T04:03:18.033Z,99493.34
2022-11-25T04:03:49.560Z,99491.69
2022-11-25T04:04:21.187Z,99491.41
2022-11-25T04:04:52.959Z,99493.22
2022-11-25T04:05:24.539Z,99493.22
2022-11-25T04:05:56.028Z,99492.25
2022-11-25T04:06:27.506Z,99498.25
2022-11-25T04:06:59.073Z,99487.88
2022-11-25T04:07:30.624Z,99502.34
2022-11-25T04:08:02.211Z,99501.50
2022-11-25T04:08:33.840Z,99509.47
2022-11-25T04:09:06.009Z,99506.81
2022-11-25T04:09:37.645Z,99504.31
2022-11-25T04:10:09.395Z,99505.16
2022-11-25T04:10:40.937Z,99506.69
2022-11-25T04:11:12.438Z,99507.53
2022-11-25T04:11:43.989Z,99505.56
2022-11-25T04:12:15.529Z,99507.38
2022-11-25T04:12:47.145Z,99500.38
2022-11-25T04:13:18.914Z,99504.59
2022-11-25T04:13:50.358Z,99502.88
2022-11-25T04:14:21.897Z,99510.88
2022-11-25T04:14:53.397Z,99510.59
2022-11-25T04:15:24.844Z,99504.59
2022-11-25T04:15:56.344Z,99507.94
2022-11-25T04:16:27.929Z,99506.09
2022-11-25T04:16:59.425Z,99506.91
2022-11-25T04:17:30.903Z,99514.09
2022-11-25T04:18:02.423Z,99511.28
2022-11-25T04:18:33.921Z,99507.63
2022-11-25T04:19:05.358Z,99511.13
2022-11-25T04:19:36.944Z,99512.97
2022-11-25T04:20:08.576Z,99502.59
2022-11-25T04:20:40.114Z,99498.94
2022-11-25T04:21:11.609Z,99510.44
2022-11-25T04:21:44.982Z,99508.75
2022-11-25T04:22:19.612Z,99510.59
2022-11-25T04:22:51.068Z,99515.78
2022-11-25T04:23:22.502Z,99517.56
2022-11-25T04:23:54.010Z,99513.25
2022-11-25T04:24:25.505Z,99514.09
2022-11-25T04:24:56.960Z,99515.78
2022-11-25T04:25:28.479Z,99513.78
2022-11-25T04:26:00.034Z,99521.78
2022-11-25T04:26:31.487Z,99519.13
2022-11-25T04:27:02.962Z,99524.59
2022-11-25T04:27:34.382Z,99523.63
2022-11-25T04:28:05.893Z,99528.66
2022-11-25T04:28:37.489Z,99528.94
2022-11-25T04:29:09.076Z,99534.41
2022-11-25T04:29:40.567Z,99527.78
2022-11-25T04:30:12.262Z,99533.97
2022-11-25T04:30:43.822Z,99533.13
2022-11-25T04:31:15.386Z,99544.78
2022-11-25T04:31:47.067Z,99537.91
2022-11-25T04:32:18.511Z,99538.06
2022-11-25T04:32:49.993Z,99538.19
2022-11-25T04:33:21.547Z,99544.53
2022-11-25T04:33:53.173Z,99540.03
2022-11-25T04:34:24.745Z,99543.22
2022-11-25T04:34:56.399Z,99547.88
2022-11-25T04:35:27.905Z,99543.22
2022-11-25T04:35:59.383Z,99538.88
2022-11-25T04:36:30.827Z,99539.75
2022-11-25T04:37:02.349Z,99531.59
2022-11-25T04:37:33.845Z,99537.22
2022-11-25T04:38:05.365Z,99548.84
2022-11-25T04:38:36.874Z,99563.84
2022-11-25T04:39:08.352Z,99552.91
2022-11-25T04:39:39.738Z,99544.91
2022-11-25T04:40:11.455Z,99552.19
2022-11-25T04:40:43.045Z,99540.44
2022-11-25T04:41:14.466Z,99536.94
2022-11-25T04:41:45.936Z,99544.91
2022-11-25T04:42:17.572Z,99543.22
2022-11-25T04:42:49.041Z,99549.53
2022-11-25T04:43:20.492Z,99555.72
2022-11-25T04:43:52.071Z,99553.59
2022-11-25T04:44:23.525Z,99544.91
2022-11-25T04:45:14.483Z,99549.25
2022-11-25T04:46:06.797Z,99552.06
2022-11-25T04:46:40.279Z,99542.56
2022-11-25T04:47:11.845Z,99539.75
2022-11-25T04:47:43.600Z,99540.44
2022-11-25T04:48:15.071Z,99547.59
2022-11-25T04:48:46.590Z,99547.44
2022-11-25T04:49:18.076Z,99543.22
2022-11-25T04:49:49.545Z,99552.19
2022-11-25T04:50:21.551Z,99551.06
2022-11-25T04:50:53.189Z,99551.22
2022-11-25T04:51:24.714Z,99541.53
2022-11-25T04:51:56.250Z,99555.28
2022-11-25T04:52:27.684Z,99552.91
2022-11-25T04:52:59.190Z,99560.03
2022-11-25T04:53:30.690Z,99559.91
2022-11-25T04:54:02.243Z,99558.25
2022-11-25T04:54:34.072Z,99556.53
2022-11-25T04:55:06.031Z,99559.06
2022-11-25T04:55:37.560Z,99558.91
2022-11-25T04:56:09.238Z,99555.88
2022-11-25T04:56:40.771Z,99557.38
2022-11-25T04:57:15.078Z,99560.19
2022-11-25T04:57:46.485Z,99565.38
2022-11-25T04:58:17.902Z,99566.22
2022-11-25T04:58:49.377Z,99566.22
2022-11-25T04:59:20.910Z,99564.69
2022-11-25T04:59:52.397Z,99560.19
2022-11-25T05:00:23.849Z,99567.50
2022-11-25T05:00:55.267Z,99564.53
2022-11-25T05:01:26.914Z,99569.88
2022-11-25T05:01:58.596Z,99563.72
2022-11-25T05:02:30.273Z,99573.50
2022-11-25T05:03:01.730Z,99560.03
2022-11-25T05:03:33.215Z,99561.59
2022-11-25T05:04:04.753Z,99570.69
2022-11-25T05:04:36.479Z,99565.94
2022-11-25T05:05:08.239Z,99574.06
2022-11-25T05:05:39.757Z,99571.25
2022-11-25T05:06:11.218Z,99567.88
2022-11-25T05:06:42.665Z,99572.25
2022-11-25T05:07:14.210Z,99571.41
2022-11-25T05:07:46.013Z,99569.03
2022-11-25T05:08:17.575Z,99563.72
2022-11-25T05:08:49.231Z,99569.88
2022-11-25T05:09:20.858Z,99568.91
2022-11-25T05:09:52.259Z,99560.03
2022-11-25T05:10:23.782Z,99566.38
2022-11-25T05:10:55.343Z,99571.56
2022-11-25T05:11:26.789Z,99564.53
2022-11-25T05:11:58.215Z,99562.84
2022-11-25T05:12:29.685Z,99564.25
2022-11-25T05:13:01.173Z,99562.56
2022-11-25T05:13:32.580Z,99562.84
2022-11-25T05:14:04.051Z,99573.22
2022-11-25T05:14:35.908Z,99567.06
2022-11-25T05:15:07.968Z,99572.38
2022-11-25T05:15:39.442Z,99575.88
2022-11-25T05:16:11.014Z,99573.22
2022-11-25T05:16:42.671Z,99568.91
2022-11-25T05:17:15.842Z,99567.06
2022-11-25T05:17:47.260Z,99561.72
2022-11-25T05:18:18.741Z,99567.19
2022-11-25T05:18:50.278Z,99567.88
2022-11-25T05:19:21.837Z,99567.88
2022-11-25T05:19:53.292Z,99571.56
2022-11-25T05:20:25.036Z,99571.69
2022-11-25T05:21:00.437Z,99570.16
2022-11-25T05:21:32.605Z,99574.38
2022-11-25T05:22:04.089Z,99569.88
2022-11-25T05:22:35.717Z,99567.19
2022-11-25T05:23:07.384Z,99574.06
2022-11-25T05:23:38.887Z,99570.41
2022-11-25T05:24:10.373Z,99579.41
2022-11-25T05:24:41.916Z,99572.78
2022-11-25T05:25:13.488Z,99563.28
2022-11-25T05:25:45.015Z,99572.38
2022-11-25T05:26:16.429Z,99568.91
2022-11-25T05:26:48.080Z,99567.88
2022-11-25T05:27:19.558Z,99574.38
2022-11-25T05:27:51.103Z,99578.41
2022-11-25T05:28:22.598Z,99575.03
2022-11-25T05:28:54.084Z,99573.50
2022-11-25T05:29:25.507Z,99578.81
2022-11-25T05:29:56.920Z,99577.03
2022-11-25T05:30:29.016Z,99573.22
2022-11-25T05:31:00.573Z,99571.56
2022-11-25T05:31:32.060Z,99576.88
2022-11-25T05:32:03.860Z,99580.22
2022-11-25T05:32:35.345Z,99573.34
2022-11-25T05:33:06.935Z,99573.50
2022-11-25T05:33:38.406Z,99574.22
2022-11-25T05:34:09.858Z,99577.41
2022-11-25T05:34:41.372Z,99570.25
2022-11-25T05:35:12.859Z,99571.56
2022-11-25T05:35:44.360Z,99576.88
2022-11-25T05:36:15.854Z,99578.00
2022-11-25T05:36:47.297Z,99574.22
2022-11-25T05:37:22.862Z,99579.53
2022-11-25T05:37:55.836Z,99586.66
2022-11-25T05:38:27.297Z,99578.81
2022-11-25T05:38:59.010Z,99580.53
2022-11-25T05:39:30.547Z,99578.53
2022-11-25T05:40:02.394Z,99589.19
2022-11-25T05:40:33.900Z,99584.88
2022-11-25T05:41:05.952Z,99589.75
2022-11-25T05:41:37.345Z,99580.09
2022-11-25T05:42:08.838Z,99593.53
2022-11-25T05:42:40.314Z,99576.88
2022-11-25T05:43:11.978Z,99583.88
2022-11-25T05:43:43.481Z,99588.38
2022-11-25T05:44:19.724Z,99585.56
2022-11-25T05:44:54.056Z,99583.03
2022-11-25T05:45:25.458Z,99593.69
2022-11-25T05:45:56.952Z,99586.00
2022-11-25T05:46:28.916Z,99590.88
2022-11-25T05:47:00.592Z,99587.38
2022-11-25T05:47:32.214Z,99586.38
2022-11-25T05:48:03.677Z,99590.06
2022-11-25T05:48:35.230Z,99586.66
2022-11-25T05:49:06.925Z,99585.56
2022-11-25T05:49:38.411Z,99586.38
2022-11-25T05:50:10.004Z,99588.22
2022-11-25T05:50:41.728Z,99590.06
2022-11-25T05:51:13.226Z,99588.22
2022-11-25T05:51:44.860Z,99591.03
2022-11-25T05:52:16.379Z,99586.66
2022-11-25T05:52:47.972Z,99586.66
2022-11-25T05:53:19.592Z,99593.69
2022-11-25T05:53:51.442Z,99582.06
2022-11-25T05:54:22.991Z,99580.22
2022-11-25T05:54:57.304Z,99588.22
2022-11-25T05:55:29.157Z,99588.06
2022-11-25T05:56:01.624Z,99591.72
2022-11-25T05:56:33.179Z,99584.59
2022-11-25T05:57:04.642Z,99587.25
2022-11-25T05:57:36.256Z,99588.22
2022-11-25T05:58:07.800Z,99585.56
2022-11-25T05:58:39.202Z,99591.84
2022-11-25T05:59:10.717Z,99588.66
2022-11-25T05:59:42.287Z,99586.81
2022-11-25T06:00:14.041Z,99580.81
2022-11-25T06:00:45.489Z,99583.31
2022-11-25T06:01:17.029Z,99588.09
2022-11-25T06:01:48.626Z,99587.53
2022-11-25T06:02:20.341Z,99583.31
2022-11-25T06:02:52.111Z,99588.38
2022-11-25T06:03:24.412Z,99583.31
2022-11-25T06:03:55.918Z,99590.88
2022-11-25T06:04:27.384Z,99595.38
2022-11-25T06:04:58.977Z,99591.03
2022-11-25T06:05:30.429Z,99591.16
2022-11-25T06:06:01.878Z,99596.34
2022-11-25T06:06:33.393Z,99596.34
2022-11-25T06:07:04.853Z,99597.19
2022-11-25T06:07:36.423Z,99597.03
2022-11-25T06:08:08.035Z,99594.53
2022-11-25T06:08:39.653Z,99601.81
2022-11-25T06:09:11.120Z,99599.84
2022-11-25T06:09:42.703Z,99603.50
2022-11-25T06:10:14.161Z,99604.34
2022-11-25T06:10:45.654Z,99599.69
2022-11-25T06:11:17.133Z,99598.19
2022-11-25T06:11:48.815Z,99599.84
2022-11-25T06:12:21.054Z,99597.19
2022-11-25T06:12:52.520Z,99604.88
2022-11-25T06:13:24.236Z,99601.94
2022-11-25T06:13:56.343Z,99612.88
2022-11-25T06:14:27.945Z,99604.88
2022-11-25T06:14:59.422Z,99603.22
2022-11-25T06:15:30.975Z,99612.19
2022-11-25T06:16:07.965Z,99599.00
2022-11-25T06:16:40.631Z,99603.50
2022-11-25T06:17:12.120Z,99604.63
2022-11-25T06:17:43.606Z,99599.84
2022-11-25T06:18:15.555Z,99613.88
2022-11-25T06:18:47.087Z,99612.88
2022-11-25T06:19:18.643Z,99605.75
2022-11-25T06:19:50.159Z,99611.91
2022-11-25T06:20:21.648Z,99614.56